createdAt,value
2023-02-14T00:00:01.448Z,2.24
2023-02-14T00:02:30.601Z,2.15
2023-02-14T00:04:58.385Z,2.18
2023-02-14T00:07:26.043Z,2.10
2023-02-14T00:09:53.657Z,2.01
2023-02-14T00:12:21.279Z,1.76
2023-02-14T00:15:06.603Z,1.77
2023-02-14T00:17:35.599Z,1.77
2023-02-14T00:20:03.178Z,1.70
2023-02-14T00:22:30.837Z,1.65
2023-02-14T00:24:58.727Z,1.58
2023-02-14T00:27:26.352Z,1.48
2023-02-14T00:29:54.742Z,1.45
2023-02-14T00:32:22.550Z,1.40
2023-02-14T00:34:51.514Z,1.33
2023-02-14T00:37:19.150Z,1.36
2023-02-14T00:39:46.786Z,1.31
2023-02-14T00:42:15.285Z,1.30
2023-02-14T00:44:43.105Z,1.26
2023-02-14T00:47:12.007Z,1.26
2023-02-14T00:49:39.588Z,1.18
2023-02-14T00:52:08.574Z,1.20
2023-02-14T00:54:36.209Z,1.31
2023-02-14T00:57:03.967Z,1.26
2023-02-14T00:59:31.647Z,1.25
2023-02-14T01:01:59.304Z,1.22
2023-02-14T01:04:27.240Z,1.18
2023-02-14T01:06:54.982Z,1.09
2023-02-14T01:09:23.941Z,0.98
2023-02-14T01:11:51.593Z,1.04
2023-02-14T01:14:19.479Z,0.94
2023-02-14T01:16:47.227Z,0.80
2023-02-14T01:19:15.007Z,0.88
2023-02-14T01:21:44.831Z,0.89
2023-02-14T01:24:13.568Z,0.90
2023-02-14T01:26:45.194Z,0.84
2023-02-14T01:29:12.843Z,0.84
2023-02-14T01:31:40.698Z,0.84
2023-02-14T01:34:08.471Z,0.81
2023-02-14T01:36:38.401Z,0.68
2023-02-14T01:39:08.024Z,0.71
2023-02-14T01:41:38.585Z,0.69
2023-02-14T01:44:09.442Z,0.68
2023-02-14T01:46:38.625Z,0.56
2023-02-14T01:49:12.766Z,0.60
2023-02-14T01:51:45.554Z,0.51
2023-02-14T01:54:14.433Z,0.50
2023-02-14T01:56:45.048Z,0.56
2023-02-14T01:59:19.526Z,0.53
2023-02-14T02:01:50.703Z,0.57
2023-02-14T02:04:22.796Z,0.54
2023-02-14T02:06:54.487Z,0.52
2023-02-14T02:09:27.466Z,0.51
2023-02-14T02:11:55.838Z,0.54
2023-02-14T02:14:25.176Z,0.44
2023-02-14T02:17:12.606Z,0.40
2023-02-14T02:20:17.975Z,0.36
2023-02-14T02:23:21.825Z,0.46
2023-02-14T02:26:11.288Z,0.47
2023-02-14T02:28:57.979Z,0.43
2023-02-14T02:31:47.561Z,0.28
2023-02-14T02:34:44.772Z,0.24
2023-02-14T02:37:26.135Z,0.28
2023-02-14T02:40:07.424Z,0.27
2023-02-14T02:42:44.015Z,0.13
2023-02-14T02:45:18.082Z,0.10
2023-02-14T02:47:54.070Z,0.13
2023-02-14T02:50:43.973Z,0.11
2023-02-14T02:53:20.871Z,-0.01
2023-02-14T02:56:12.413Z,-0.08
2023-02-14T02:58:46.267Z,-0.08
2023-02-14T03:01:19.109Z,-0.21
2023-02-14T03:04:03.766Z,-0.22
2023-02-14T03:06:31.618Z,-0.21
2023-02-14T03:09:11.486Z,-0.35
2023-02-14T03:11:44.974Z,-0.22
2023-02-14T03:14:21.458Z,-0.22
2023-02-14T03:17:04.723Z,-0.12
2023-02-14T03:20:10.167Z,-0.14
2023-02-14T03:22:49.842Z,-0.20
2023-02-14T03:25:29.329Z,-0.22
2023-02-14T03:28:05.446Z,-0.24
2023-02-14T03:30:42.084Z,-0.28
2023-02-14T03:33:18.124Z,-0.35
2023-02-14T03:35:54.390Z,-0.31
2023-02-14T03:38:26.434Z,-0.33
2023-02-14T03:41:00.488Z,-0.31
2023-02-14T03:43:35.236Z,-0.30
2023-02-14T03:46:08.267Z,-0.48
2023-02-14T03:48:37.650Z,-0.37
2023-02-14T03:51:08.321Z,-0.42
2023-02-14T03:53:39.425Z,-0.42
2023-02-14T03:56:14.855Z,-0.42
2023-02-14T03:58:45.730Z,-0.46
2023-02-14T04:01:20.751Z,-0.49
2023-02-14T04:03:49.758Z,-0.50
2023-02-14T04:06:18.430Z,-0.56
2023-02-14T04:08:46.472Z,-0.62
2023-02-14T04:11:15.985Z,-0.69
2023-02-14T04:13:43.698Z,-0.70
2023-02-14T04:16:11.378Z,-0.72
2023-02-14T04:18:58.906Z,-0.68
2023-02-14T04:21:26.561Z,-0.69
2023-02-14T04:23:54.246Z,-0.63
2023-02-14T04:26:23.372Z,-0.66
2023-02-14T04:28:51.018Z,-0.64
2023-02-14T04:31:18.726Z,-0.66
2023-02-14T04:33:48.026Z,-0.67
2023-02-14T04:36:16.025Z,-0.67
2023-02-14T04:38:44.151Z,-0.72
2023-02-14T04:41:11.967Z,-0.67
2023-02-14T04:43:41.296Z,-0.67
2023-02-14T04:46:08.967Z,-0.73
2023-02-14T04:48:36.930Z,-0.72
2023-02-14T04:51:05.010Z,-0.67
2023-02-14T04:53:32.651Z,-0.73
2023-02-14T04:56:00.266Z,-0.79
2023-02-14T04:58:27.921Z,-0.77
2023-02-14T05:00:57.013Z,-0.77
2023-02-14T05:03:25.020Z,-0.85
2023-02-14T05:05:52.693Z,-0.86
2023-02-14T05:08:20.358Z,-0.78
2023-02-14T05:10:48.007Z,-0.72
2023-02-14T05:13:15.721Z,-0.65
2023-02-14T05:15:45.098Z,-0.57
2023-02-14T05:18:14.115Z,-0.56
2023-02-14T05:20:41.764Z,-0.44
2023-02-14T05:23:13.506Z,-0.38
2023-02-14T05:25:41.268Z,-0.28
2023-02-14T05:28:09.254Z,-0.30
2023-02-14T05:30:38.357Z,-0.38
2023-02-14T05:33:06.145Z,-0.39
2023-02-14T05:35:35.215Z,-0.47
2023-02-14T05:38:02.850Z,-0.43
2023-02-14T05:40:30.531Z,-0.42
2023-02-14T05:42:58.939Z,-0.34
2023-02-14T05:45:27.312Z,-0.34
2023-02-14T05:47:54.950Z,-0.27
2023-02-14T05:50:22.753Z,-0.25
2023-02-14T05:52:56.588Z,-0.06
2023-02-14T05:55:24.644Z,0.03
2023-02-14T05:57:52.265Z,-0.02
2023-02-14T06:00:21.321Z,0.05
2023-02-14T06:02:48.986Z,0.14
2023-02-14T06:05:18.119Z,0.07
2023-02-14T06:07:50.214Z,0.16
2023-02-14T06:10:21.315Z,-0.19
2023-02-14T06:12:50.235Z,0.08
2023-02-14T06:15:18.440Z,-0.07
2023-02-14T06:17:47.123Z,-0.10
2023-02-14T06:20:15.106Z,-0.10
2023-02-14T06:22:42.925Z,0.02
2023-02-14T06:25:13.464Z,-0.03
2023-02-14T06:27:42.790Z,0.02
2023-02-14T06:30:12.562Z,-0.02
2023-02-14T06:32:40.413Z,0.14
2023-02-14T06:35:09.067Z,0.22
2023-02-14T06:37:38.630Z,0.27
2023-02-14T06:40:07.773Z,0.25
2023-02-14T06:42:35.521Z,0.25
2023-02-14T06:45:05.306Z,0.42
2023-02-14T06:47:34.991Z,0.42
2023-02-14T06:50:05.109Z,0.43
2023-02-14T06:52:33.162Z,0.44
2023-02-14T06:55:01.054Z,0.32
2023-02-14T06:57:29.174Z,0.45
2023-02-14T06:59:57.052Z,0.46
2023-02-14T07:02:26.407Z,0.51
2023-02-14T07:04:54.197Z,0.44
2023-02-14T07:07:22.020Z,0.52
2023-02-14T07:09:49.960Z,0.65
2023-02-14T07:12:17.768Z,0.69
2023-02-14T07:14:45.548Z,0.88
2023-02-14T07:17:13.316Z,0.77
2023-02-14T07:19:42.447Z,0.74
2023-02-14T07:22:10.333Z,0.92
2023-02-14T07:24:38.237Z,0.98
2023-02-14T07:27:06.048Z,0.97
2023-02-14T07:29:34.159Z,0.86
2023-02-14T07:32:01.997Z,0.99
2023-02-14T07:34:29.924Z,0.97
2023-02-14T07:36:59.105Z,1.12
2023-02-14T07:39:26.885Z,1.23
2023-02-14T07:41:54.652Z,1.25
2023-02-14T07:44:22.402Z,1.22
2023-02-14T07:46:50.187Z,1.20
2023-02-14T07:49:17.948Z,1.18
2023-02-14T07:51:45.683Z,1.21
2023-02-14T07:54:14.861Z,1.28
2023-02-14T07:56:42.709Z,1.23
2023-02-14T07:59:10.581Z,1.26
2023-02-14T08:01:38.478Z,1.20
2023-02-14T08:04:06.536Z,1.33
2023-02-14T08:06:34.545Z,1.48
2023-02-14T08:09:02.525Z,1.60
2023-02-14T08:11:54.292Z,1.75
2023-02-14T08:14:22.387Z,1.90
2023-02-14T08:16:50.158Z,2.01
2023-02-14T08:19:17.962Z,1.93
2023-02-14T08:21:45.738Z,2.09
2023-02-14T08:24:13.526Z,2.24
2023-02-14T08:26:42.649Z,2.34
2023-02-14T08:29:10.550Z,2.68
2023-02-14T08:31:38.426Z,2.46
2023-02-14T08:34:06.940Z,2.49
2023-02-14T08:36:35.268Z,2.51
2023-02-14T08:39:04.846Z,2.51
2023-02-14T08:41:32.736Z,2.50
2023-02-14T08:44:02.182Z,2.52
2023-02-14T08:46:30.373Z,2.62
2023-02-14T08:48:58.215Z,2.37
2023-02-14T08:51:26.855Z,2.50
2023-02-14T08:53:55.923Z,2.27
2023-02-14T08:56:24.824Z,2.04
2023-02-14T08:58:54.460Z,2.01
2023-02-14T09:01:23.806Z,2.36
2023-02-14T09:03:51.669Z,2.36
2023-02-14T09:06:19.601Z,2.51
2023-02-14T09:08:47.771Z,2.71
2023-02-14T09:11:18.663Z,2.83
2023-02-14T09:13:48.208Z,2.71
2023-02-14T09:16:18.957Z,2.59
2023-02-14T09:18:49.539Z,2.72
2023-02-14T09:21:18.735Z,2.80
2023-02-14T09:23:46.816Z,2.89
2023-02-14T09:26:16.200Z,2.94
2023-02-14T09:28:44.896Z,3.09
2023-02-14T09:31:15.131Z,3.00
2023-02-14T09:33:44.446Z,3.03
2023-02-14T09:36:31.378Z,3.52
2023-02-14T09:38:59.269Z,3.31
2023-02-14T09:41:54.368Z,3.26
2023-02-14T09:44:30.651Z,3.30
2023-02-14T09:47:06.654Z,3.59
2023-02-14T09:49:39.681Z,3.87
2023-02-14T09:52:16.541Z,3.66
2023-02-14T09:54:49.252Z,3.93
2023-02-14T09:57:25.796Z,3.80
2023-02-14T09:59:58.387Z,3.66
2023-02-14T10:02:39.012Z,3.83
2023-02-14T10:05:14.009Z,3.90
2023-02-14T10:07:56.850Z,4.06
2023-02-14T10:10:28.266Z,4.14
2023-02-14T10:13:01.674Z,4.24
2023-02-14T10:15:33.538Z,4.39
2023-02-14T10:18:06.184Z,4.42
2023-02-14T10:20:39.323Z,4.19
2023-02-14T10:23:30.241Z,4.09
2023-02-14T10:26:02.087Z,3.96
2023-02-14T10:28:35.596Z,3.60
2023-02-14T10:31:18.770Z,4.00
2023-02-14T10:34:16.801Z,3.95
2023-02-14T10:37:02.998Z,3.85
2023-02-14T10:39:53.845Z,4.07
2023-02-14T10:42:32.367Z,4.14
2023-02-14T10:45:12.957Z,4.10
2023-02-14T10:47:50.056Z,4.25
2023-02-14T10:50:22.240Z,3.99
2023-02-14T10:52:59.351Z,4.07
2023-02-14T10:55:39.688Z,4.03
2023-02-14T10:58:11.615Z,3.98
2023-02-14T11:00:41.734Z,4.14
2023-02-14T11:03:10.905Z,4.08
2023-02-14T11:05:43.724Z,4.33
2023-02-14T11:08:26.383Z,4.26
2023-02-14T11:11:00.639Z,4.44
2023-02-14T11:13:32.028Z,4.36
2023-02-14T11:16:01.954Z,4.37
2023-02-14T11:18:33.049Z,4.38
2023-02-14T11:21:03.258Z,4.61
2023-02-14T11:23:34.586Z,4.22
2023-02-14T11:26:26.241Z,4.36
2023-02-14T11:28:58.272Z,4.31
2023-02-14T11:31:31.254Z,4.38
2023-02-14T11:33:59.901Z,4.54
2023-02-14T11:36:28.605Z,4.44
2023-02-14T11:38:59.290Z,4.26
2023-02-14T11:41:28.369Z,4.49
2023-02-14T11:44:15.347Z,4.65
2023-02-14T11:46:52.782Z,4.62
2023-02-14T11:49:28.419Z,4.55
2023-02-14T11:51:57.320Z,4.80
2023-02-14T11:54:30.734Z,4.75
2023-02-14T11:57:07.452Z,4.56
2023-02-14T11:59:39.898Z,4.66
2023-02-14T12:02:21.385Z,4.24
2023-02-14T12:04:52.885Z,4.37
2023-02-14T12:07:25.782Z,4.45
2023-02-14T12:10:17.806Z,4.59
2023-02-14T12:12:56.408Z,4.80
2023-02-14T12:15:43.576Z,4.95
2023-02-14T12:18:25.689Z,4.81
2023-02-14T12:21:00.706Z,4.76
2023-02-14T12:23:35.962Z,4.71
2023-02-14T12:26:10.395Z,4.59
2023-02-14T12:28:52.196Z,4.69
2023-02-14T12:31:20.561Z,4.99
2023-02-14T12:33:50.453Z,5.03
2023-02-14T12:36:34.315Z,4.74
2023-02-14T12:39:10.164Z,4.84
2023-02-14T12:41:49.069Z,4.68
2023-02-14T12:44:28.525Z,4.67
2023-02-14T12:47:17.772Z,5.03
2023-02-14T12:50:14.266Z,4.91
2023-02-14T12:52:55.438Z,4.86
2023-02-14T12:55:48.886Z,4.86
2023-02-14T12:58:29.076Z,4.47
2023-02-14T13:01:08.644Z,4.94
2023-02-14T13:04:04.041Z,4.90
2023-02-14T13:06:34.054Z,4.81
2023-02-14T13:09:17.630Z,4.92
2023-02-14T13:11:59.431Z,4.78
2023-02-14T13:14:41.633Z,4.76
2023-02-14T13:17:20.227Z,4.77
2023-02-14T13:19:58.972Z,4.69
2023-02-14T13:22:30.902Z,4.65
2023-02-14T13:25:01.644Z,4.69
2023-02-14T13:27:33.978Z,4.68
2023-02-14T13:30:06.251Z,4.66
2023-02-14T13:32:39.866Z,4.57
2023-02-14T13:35:09.151Z,4.36
2023-02-14T13:37:37.878Z,4.37
2023-02-14T13:40:10.340Z,4.56
2023-02-14T13:42:56.924Z,4.33
2023-02-14T13:45:53.951Z,4.37
2023-02-14T13:48:25.508Z,4.23
2023-02-14T13:50:56.854Z,4.53
2023-02-14T13:53:36.829Z,4.56
2023-02-14T13:56:07.388Z,4.46
2023-02-14T13:58:36.342Z,4.05
2023-02-14T14:01:31.539Z,4.57
2023-02-14T14:04:03.388Z,4.63
2023-02-14T14:06:31.490Z,4.48
2023-02-14T14:08:59.303Z,4.54
2023-02-14T14:11:57.725Z,4.43
2023-02-14T14:14:39.552Z,4.30
2023-02-14T14:17:25.745Z,4.36
2023-02-14T14:19:54.911Z,4.22
2023-02-14T14:22:22.730Z,4.26
2023-02-14T14:24:56.045Z,4.32
2023-02-14T14:27:26.533Z,4.19
2023-02-14T14:29:56.273Z,4.15
2023-02-14T14:32:29.870Z,3.92
2023-02-14T14:35:00.607Z,4.24
2023-02-14T14:37:30.626Z,4.16
2023-02-14T14:40:00.084Z,4.11
2023-02-14T14:42:30.926Z,3.99
2023-02-14T14:45:02.758Z,3.93
2023-02-14T14:47:38.361Z,4.06
2023-02-14T14:50:10.545Z,3.99
2023-02-14T14:52:42.679Z,3.90
2023-02-14T14:55:19.836Z,4.06
2023-02-14T14:57:51.471Z,4.18
2023-02-14T15:00:22.656Z,4.15
2023-02-14T15:02:59.826Z,4.16
2023-02-14T15:05:32.016Z,4.18
2023-02-14T15:07:59.995Z,4.17
2023-02-14T15:10:29.930Z,3.81
2023-02-14T15:13:17.965Z,3.91
2023-02-14T15:15:50.776Z,3.60
2023-02-14T15:18:20.332Z,3.64
2023-02-14T15:20:52.081Z,3.30
2023-02-14T15:23:23.155Z,3.83
2023-02-14T15:25:52.714Z,3.72
2023-02-14T15:28:32.054Z,3.62
2023-02-14T15:31:02.941Z,3.71
2023-02-14T15:33:32.242Z,3.60
2023-02-14T15:36:04.113Z,3.61
2023-02-14T15:38:33.796Z,3.54
2023-02-14T15:41:02.537Z,3.56
2023-02-14T15:43:32.671Z,3.61
2023-02-14T15:46:17.141Z,3.55
2023-02-14T15:48:46.431Z,3.64
2023-02-14T15:51:21.642Z,3.35
2023-02-14T15:53:54.586Z,3.35
2023-02-14T15:56:26.248Z,3.27
2023-02-14T15:59:00.406Z,3.43
2023-02-14T16:01:28.650Z,3.40
2023-02-14T16:03:59.753Z,3.45
2023-02-14T16:06:34.828Z,3.28
2023-02-14T16:09:04.392Z,3.38
2023-02-14T16:11:35.406Z,3.35
2023-02-14T16:14:27.753Z,3.30
2023-02-14T16:17:03.091Z,3.29
2023-02-14T16:19:35.654Z,3.24
2023-02-14T16:22:05.290Z,3.29
2023-02-14T16:24:33.112Z,3.24
2023-02-14T16:27:06.716Z,3.22
2023-02-14T16:29:35.818Z,3.23
2023-02-14T16:32:16.310Z,3.09
2023-02-14T16:34:45.920Z,3.12
2023-02-14T16:37:22.155Z,2.95
2023-02-14T16:39:50.634Z,3.00
2023-02-14T16:42:19.381Z,3.08
2023-02-14T16:44:47.934Z,2.95
2023-02-14T16:47:17.893Z,2.95
2023-02-14T16:49:45.882Z,2.84
2023-02-14T16:52:15.542Z,2.72
2023-02-14T16:54:44.642Z,2.81
2023-02-14T16:57:18.789Z,2.85
2023-02-14T16:59:46.803Z,2.85
2023-02-14T17:02:15.965Z,2.79
2023-02-14T17:04:43.613Z,2.74
2023-02-14T17:07:13.097Z,2.58
2023-02-14T17:09:44.634Z,2.51
2023-02-14T17:12:17.360Z,2.79
2023-02-14T17:14:49.641Z,2.72
2023-02-14T17:17:17.800Z,2.56
2023-02-14T17:19:45.666Z,2.70
2023-02-14T17:22:15.112Z,2.76
2023-02-14T17:24:42.878Z,2.84
2023-02-14T17:27:10.880Z,2.82
2023-02-14T17:29:39.856Z,2.85
2023-02-14T17:32:07.630Z,2.82
2023-02-14T17:34:44.331Z,2.87
2023-02-14T17:37:12.040Z,2.52
2023-02-14T17:39:39.987Z,2.71
2023-02-14T17:42:07.654Z,2.76
2023-02-14T17:44:35.873Z,2.68
2023-02-14T17:47:05.539Z,2.71
2023-02-14T17:49:33.244Z,2.70
2023-02-14T17:52:01.036Z,2.72
2023-02-14T17:54:28.706Z,2.58
2023-02-14T17:56:56.360Z,2.53
2023-02-14T17:59:24.225Z,2.29
2023-02-14T18:01:51.882Z,2.24
2023-02-14T18:04:20.933Z,2.16
2023-02-14T18:06:48.590Z,2.06
2023-02-14T18:09:16.318Z,2.05
2023-02-14T18:11:44.447Z,1.90
2023-02-14T18:14:12.657Z,1.78
2023-02-14T18:16:41.241Z,1.75
2023-02-14T18:19:09.993Z,1.55
2023-02-14T18:21:40.017Z,1.53
2023-02-14T18:24:08.523Z,1.47
2023-02-14T18:26:37.880Z,1.45
2023-02-14T18:29:06.645Z,1.40
2023-02-14T18:31:35.169Z,1.30
2023-02-14T18:34:03.110Z,1.27
2023-02-14T18:36:32.101Z,1.34
2023-02-14T18:39:01.278Z,1.17
2023-02-14T18:41:29.627Z,1.23
2023-02-14T18:43:57.311Z,1.29
2023-02-14T18:46:27.093Z,1.16
2023-02-14T18:48:56.715Z,1.23
2023-02-14T18:51:26.146Z,1.08
2023-02-14T18:53:55.079Z,0.96
2023-02-14T18:56:27.091Z,0.98
2023-02-14T18:58:57.363Z,0.95
2023-02-14T19:01:28.704Z,0.90
2023-02-14T19:03:57.428Z,0.80
2023-02-14T19:06:25.143Z,0.86
2023-02-14T19:08:52.838Z,0.95
2023-02-14T19:11:23.501Z,0.96
2023-02-14T19:13:55.569Z,0.98
2023-02-14T19:16:26.047Z,0.97
2023-02-14T19:18:54.026Z,1.05
2023-02-14T19:21:23.475Z,1.16
2023-02-14T19:23:53.232Z,1.26
2023-02-14T19:26:23.472Z,1.22
2023-02-14T19:28:56.867Z,1.27
2023-02-14T19:31:25.185Z,1.38
2023-02-14T19:33:53.284Z,1.28
2023-02-14T19:36:23.047Z,1.31
2023-02-14T19:38:53.182Z,1.46
2023-02-14T19:41:23.055Z,1.42
2023-02-14T19:43:52.799Z,1.40
2023-02-14T19:46:22.240Z,1.30
2023-02-14T19:48:49.878Z,1.34
2023-02-14T19:51:19.362Z,1.27
2023-02-14T19:53:47.026Z,1.30
2023-02-14T19:56:19.545Z,1.28
2023-02-14T19:58:47.257Z,1.17
2023-02-14T20:01:24.342Z,1.30
2023-02-14T20:03:53.032Z,1.29
2023-02-14T20:06:22.108Z,1.16
2023-02-14T20:08:50.065Z,1.10
2023-02-14T20:11:28.183Z,1.15
2023-02-14T20:13:55.943Z,1.10
2023-02-14T20:16:26.154Z,1.23
2023-02-14T20:18:54.337Z,1.19
2023-02-14T20:21:25.380Z,1.22
2023-02-14T20:23:53.275Z,0.98
2023-02-14T20:26:21.959Z,1.14
2023-02-14T20:28:50.174Z,1.07
2023-02-14T20:31:19.999Z,1.24
2023-02-14T20:33:50.388Z,1.18
2023-02-14T20:36:18.672Z,1.20
2023-02-14T20:38:46.626Z,1.26
2023-02-14T20:41:16.373Z,1.26
2023-02-14T20:43:44.046Z,1.12
2023-02-14T20:46:11.796Z,1.12
2023-02-14T20:48:39.464Z,1.15
2023-02-14T20:51:12.252Z,1.02
2023-02-14T20:53:40.539Z,0.71
2023-02-14T20:56:08.884Z,0.77
2023-02-14T20:58:38.637Z,0.72
2023-02-14T21:01:08.084Z,0.87
2023-02-14T21:03:37.220Z,0.56
2023-02-14T21:06:05.951Z,0.82
2023-02-14T21:08:36.780Z,0.84
2023-02-14T21:11:04.996Z,0.82
2023-02-14T21:13:33.189Z,0.91
2023-02-14T21:16:03.960Z,0.90
2023-02-14T21:18:33.300Z,0.90
2023-02-14T21:21:05.492Z,0.74
2023-02-14T21:23:33.240Z,0.99
2023-02-14T21:26:02.417Z,0.96
2023-02-14T21:28:30.477Z,1.06
2023-02-14T21:31:09.167Z,1.08
2023-02-14T21:33:37.485Z,1.17
2023-02-14T21:36:08.633Z,1.14
2023-02-14T21:38:36.458Z,1.16
2023-02-14T21:41:06.967Z,1.10
2023-02-14T21:43:36.166Z,1.13
2023-02-14T21:46:05.017Z,1.17
2023-02-14T21:48:50.889Z,1.27
2023-02-14T21:51:18.567Z,1.15
2023-02-14T21:53:47.056Z,1.13
2023-02-14T21:56:19.664Z,1.02
2023-02-14T21:58:48.050Z,0.91
2023-02-14T22:01:17.464Z,1.09
2023-02-14T22:03:45.582Z,1.00
2023-02-14T22:06:14.072Z,0.81
2023-02-14T22:08:42.753Z,0.87
2023-02-14T22:11:12.578Z,0.93
2023-02-14T22:13:42.505Z,0.96
2023-02-14T22:16:12.774Z,0.90
2023-02-14T22:18:41.206Z,1.00
2023-02-14T22:21:10.807Z,1.01
2023-02-14T22:23:39.117Z,0.93
2023-02-14T22:26:14.569Z,0.97
2023-02-14T22:28:44.846Z,1.04
2023-02-14T22:31:13.182Z,1.08
2023-02-14T22:33:41.227Z,1.25
2023-02-14T22:36:09.675Z,1.28
2023-02-14T22:38:38.051Z,1.20
2023-02-14T22:41:07.287Z,1.16
2023-02-14T22:43:35.632Z,1.11
2023-02-14T22:46:06.857Z,1.10
2023-02-14T22:48:36.007Z,0.98
2023-02-14T22:51:12.012Z,0.90
2023-02-14T22:53:40.119Z,0.85
2023-02-14T22:56:16.576Z,0.71
2023-02-14T22:58:44.874Z,0.74
2023-02-14T23:01:19.216Z,0.77
2023-02-14T23:03:47.638Z,0.79
2023-02-14T23:06:16.280Z,0.77
2023-02-14T23:08:46.225Z,0.91
2023-02-14T23:11:16.666Z,0.96
2023-02-14T23:14:01.878Z,0.95
2023-02-14T23:16:48.884Z,1.01
2023-02-14T23:19:35.592Z,0.93
2023-02-14T23:22:05.901Z,0.91
2023-02-14T23:24:33.749Z,0.98
2023-02-14T23:27:01.714Z,1.07
2023-02-14T23:29:29.621Z,1.10
2023-02-14T23:31:58.942Z,0.98
2023-02-14T23:34:27.574Z,1.02
2023-02-14T23:36:56.916Z,1.00
2023-02-14T23:39:24.739Z,1.07
2023-02-14T23:41:52.592Z,1.18
2023-02-14T23:44:22.361Z,1.24
2023-02-14T23:46:51.521Z,1.11
2023-02-14T23:49:21.343Z,1.10
2023-02-14T23:51:50.837Z,1.04
2023-02-14T23:54:19.908Z,1.01
2023-02-14T23:56:47.968Z,0.99
2023-02-14T23:59:16.651Z,1.00
